sensor_id;sensor_type;location;lat;lon;timestamp;pressure;altitude;pressure_sealevel;temperature;humidity
27304;BME280;14791;52.392;13.092;2022-08-21T00:00:13;101137.38;;;25.85;51.61
27304;BME280;14791;52.392;13.092;2022-08-21T00:02:50;101133.83;;;25.80;51.59
27304;BME280;14791;52.392;13.092;2022-08-21T00:05:18;101145.16;;;25.77;51.59
27304;BME280;14791;52.392;13.092;2022-08-21T00:07:47;101141.28;;;25.72;51.60
27304;BME280;14791;52.392;13.092;2022-08-21T00:10:16;101139.73;;;25.69;51.56
27304;BME280;14791;52.392;13.092;2022-08-21T00:12:46;101140.31;;;25.64;51.50
27304;BME280;14791;52.392;13.092;2022-08-21T00:15:19;101141.70;;;25.60;51.59
27304;BME280;14791;52.392;13.092;2022-08-21T00:17:47;101142.43;;;25.54;51.57
27304;BME280;14791;52.392;13.092;2022-08-21T00:20:17;101138.37;;;25.50;51.59
27304;BME280;14791;52.392;13.092;2022-08-21T00:22:48;101141.66;;;25.45;51.58
27304;BME280;14791;52.392;13.092;2022-08-21T00:25:18;101137.75;;;25.40;51.62
27304;BME280;14791;52.392;13.092;2022-08-21T00:27:47;101142.92;;;25.35;51.64
27304;BME280;14791;52.392;13.092;2022-08-21T00:30:18;101140.05;;;25.28;51.69
27304;BME280;14791;52.392;13.092;2022-08-21T00:32:47;101137.54;;;25.22;51.74
27304;BME280;14791;52.392;13.092;2022-08-21T00:35:19;101144.39;;;25.18;51.77
27304;BME280;14791;52.392;13.092;2022-08-21T00:37:48;101144.41;;;25.14;51.80
27304;BME280;14791;52.392;13.092;2022-08-21T00:40:20;101145.27;;;25.11;51.78
27304;BME280;14791;52.392;13.092;2022-08-21T00:42:49;101144.44;;;25.06;51.78
27304;BME280;14791;52.392;13.092;2022-08-21T00:45:18;101149.42;;;25.02;51.73
27304;BME280;14791;52.392;13.092;2022-08-21T00:47:48;101153.02;;;24.99;51.69
27304;BME280;14791;52.392;13.092;2022-08-21T00:50:18;101156.64;;;24.95;51.64
27304;BME280;14791;52.392;13.092;2022-08-21T00:52:49;101148.98;;;24.91;51.65
27304;BME280;14791;52.392;13.092;2022-08-21T00:55:20;101143.20;;;24.86;51.71
27304;BME280;14791;52.392;13.092;2022-08-21T00:57:53;101145.94;;;24.81;51.78
27304;BME280;14791;52.392;13.092;2022-08-21T01:00:30;101140.84;;;24.78;51.83
27304;BME280;14791;52.392;13.092;2022-08-21T01:02:59;101140.69;;;24.76;51.88
27304;BME280;14791;52.392;13.092;2022-08-21T01:05:29;101137.44;;;24.72;51.94
27304;BME280;14791;52.392;13.092;2022-08-21T01:07:58;101134.03;;;24.70;51.96
27304;BME280;14791;52.392;13.092;2022-08-21T01:10:27;101139.70;;;24.69;51.97
27304;BME280;14791;52.392;13.092;2022-08-21T01:12:57;101133.20;;;24.66;51.97
27304;BME280;14791;52.392;13.092;2022-08-21T01:15:30;101129.79;;;24.63;51.96
27304;BME280;14791;52.392;13.092;2022-08-21T01:17:58;101136.30;;;24.62;52.01
27304;BME280;14791;52.392;13.092;2022-08-21T01:20:28;101137.34;;;24.57;52.06
27304;BME280;14791;52.392;13.092;2022-08-21T01:22:57;101136.98;;;24.56;52.13
27304;BME280;14791;52.392;13.092;2022-08-21T01:25:26;101139.56;;;24.54;52.09
27304;BME280;14791;52.392;13.092;2022-08-21T01:27:55;101139.75;;;24.52;52.08
27304;BME280;14791;52.392;13.092;2022-08-21T01:30:26;101144.53;;;24.50;52.14
27304;BME280;14791;52.392;13.092;2022-08-21T01:32:56;101145.74;;;24.48;52.20
27304;BME280;14791;52.392;13.092;2022-08-21T01:35:27;101143.34;;;24.45;52.28
27304;BME280;14791;52.392;13.092;2022-08-21T01:37:55;101142.66;;;24.43;52.33
27304;BME280;14791;52.392;13.092;2022-08-21T01:40:24;101150.17;;;24.40;52.40
27304;BME280;14791;52.392;13.092;2022-08-21T01:42:53;101151.17;;;24.39;52.38
27304;BME280;14791;52.392;13.092;2022-08-21T01:45:22;101155.98;;;24.37;52.26
27304;BME280;14791;52.392;13.092;2022-08-21T01:47:51;101147.44;;;24.36;52.22
27304;BME280;14791;52.392;13.092;2022-08-21T01:50:21;101146.76;;;24.34;52.18
27304;BME280;14791;52.392;13.092;2022-08-21T01:52:50;101143.34;;;24.32;52.19
27304;BME280;14791;52.392;13.092;2022-08-21T01:55:20;101137.05;;;24.32;52.10
27304;BME280;14791;52.392;13.092;2022-08-21T01:57:49;101138.93;;;24.31;52.05
27304;BME280;14791;52.392;13.092;2022-08-21T02:00:21;101138.93;;;24.31;51.96
27304;BME280;14791;52.392;13.092;2022-08-21T02:02:53;101143.38;;;24.28;51.79
27304;BME280;14791;52.392;13.092;2022-08-21T02:05:23;101146.27;;;24.27;51.78
27304;BME280;14791;52.392;13.092;2022-08-21T02:07:53;101149.16;;;24.25;51.74
27304;BME280;14791;52.392;13.092;2022-08-21T02:10:25;101142.02;;;24.24;51.72
27304;BME280;14791;52.392;13.092;2022-08-21T02:12:56;101144.42;;;24.23;51.73
27304;BME280;14791;52.392;13.092;2022-08-21T02:15:25;101150.56;;;24.21;51.72
27304;BME280;14791;52.392;13.092;2022-08-21T02:17:57;101152.09;;;24.19;51.70
27304;BME280;14791;52.392;13.092;2022-08-21T02:20:37;101147.16;;;24.19;51.71
27304;BME280;14791;52.392;13.092;2022-08-21T02:23:03;101143.73;;;24.17;51.61
27304;BME280;14791;52.392;13.092;2022-08-21T02:25:32;101145.95;;;24.13;51.50
27304;BME280;14791;52.392;13.092;2022-08-21T02:28:04;101140.00;;;24.10;51.46
27304;BME280;14791;52.392;13.092;2022-08-21T02:30:36;101140.69;;;24.08;51.49
27304;BME280;14791;52.392;13.092;2022-08-21T02:33:07;101141.36;;;24.06;51.43
27304;BME280;14791;52.392;13.092;2022-08-21T02:35:39;101133.86;;;24.04;51.30
27304;BME280;14791;52.392;13.092;2022-08-21T02:38:14;101133.70;;;24.01;51.28
27304;BME280;14791;52.392;13.092;2022-08-21T02:40:43;101138.31;;;24.01;51.22
27304;BME280;14791;52.392;13.092;2022-08-21T02:43:13;101143.08;;;23.98;51.16
27304;BME280;14791;52.392;13.092;2022-08-21T02:45:44;101138.66;;;23.97;51.11
27304;BME280;14791;52.392;13.092;2022-08-21T02:48:21;101136.61;;;23.95;51.00
27304;BME280;14791;52.392;13.092;2022-08-21T02:50:50;101141.74;;;23.94;50.95
27304;BME280;14791;52.392;13.092;2022-08-21T02:53:17;101138.50;;;23.95;50.92
27304;BME280;14791;52.392;13.092;2022-08-21T02:55:49;101139.02;;;23.94;50.88
27304;BME280;14791;52.392;13.092;2022-08-21T02:58:22;101135.41;;;23.94;50.94
27304;BME280;14791;52.392;13.092;2022-08-21T03:00:51;101139.86;;;23.95;50.88
27304;BME280;14791;52.392;13.092;2022-08-21T03:03:21;101139.34;;;23.95;50.73
27304;BME280;14791;52.392;13.092;2022-08-21T03:05:50;101137.98;;;23.95;50.58
27304;BME280;14791;52.392;13.092;2022-08-21T03:08:20;101143.76;;;23.96;50.59
27304;BME280;14791;52.392;13.092;2022-08-21T03:10:51;101139.67;;;23.96;50.44
27304;BME280;14791;52.392;13.092;2022-08-21T03:13:21;101140.03;;;23.97;50.31
27304;BME280;14791;52.392;13.092;2022-08-21T03:15:50;101143.27;;;23.97;50.29
27304;BME280;14791;52.392;13.092;2022-08-21T03:18:19;101137.98;;;23.95;50.13
27304;BME280;14791;52.392;13.092;2022-08-21T03:20:48;101140.38;;;23.94;50.00
27304;BME280;14791;52.392;13.092;2022-08-21T03:23:18;101131.52;;;23.92;49.96
27304;BME280;14791;52.392;13.092;2022-08-21T03:25:47;101133.20;;;23.93;49.82
27304;BME280;14791;52.392;13.092;2022-08-21T03:28:20;101135.25;;;23.91;49.69
27304;BME280;14791;52.392;13.092;2022-08-21T03:30:50;101134.92;;;23.90;49.62
27304;BME280;14791;52.392;13.092;2022-08-21T03:33:20;101131.51;;;23.88;49.55
27304;BME280;14791;52.392;13.092;2022-08-21T03:35:56;101137.31;;;23.85;49.47
27304;BME280;14791;52.392;13.092;2022-08-21T03:38:26;101138.67;;;23.81;49.42
27304;BME280;14791;52.392;13.092;2022-08-21T03:40:55;101133.73;;;23.76;49.43
27304;BME280;14791;52.392;13.092;2022-08-21T03:43:23;101135.93;;;23.73;49.44
27304;BME280;14791;52.392;13.092;2022-08-21T03:45:53;101139.66;;;23.72;49.51
27304;BME280;14791;52.392;13.092;2022-08-21T03:48:22;101138.45;;;23.70;49.48
27304;BME280;14791;52.392;13.092;2022-08-21T03:50:52;101136.25;;;23.70;49.49
27304;BME280;14791;52.392;13.092;2022-08-21T03:53:21;101132.16;;;23.70;49.48
27304;BME280;14791;52.392;13.092;2022-08-21T03:55:51;101142.73;;;23.69;49.44
27304;BME280;14791;52.392;13.092;2022-08-21T03:58:23;101134.20;;;23.68;49.47
27304;BME280;14791;52.392;13.092;2022-08-21T04:00:55;101137.12;;;23.66;49.45
27304;BME280;14791;52.392;13.092;2022-08-21T04:03:24;101137.95;;;23.63;49.43
27304;BME280;14791;52.392;13.092;2022-08-21T04:05:54;101143.76;;;23.60;49.33
27304;BME280;14791;52.392;13.092;2022-08-21T04:08:22;101143.07;;;23.57;49.35
27304;BME280;14791;52.392;13.092;2022-08-21T04:10:53;101135.24;;;23.54;49.35
27304;BME280;14791;52.392;13.092;2022-08-21T04:13:24;101151.42;;;23.52;49.36
27304;BME280;14791;52.392;13.092;2022-08-21T04:15:55;101153.30;;;23.47;49.36
27304;BME280;14791;52.392;13.092;2022-08-21T04:18:26;101162.15;;;23.45;49.38
27304;BME280;14791;52.392;13.092;2022-08-21T04:20:56;101159.77;;;23.42;49.29
27304;BME280;14791;52.392;13.092;2022-08-21T04:23:26;101158.72;;;23.39;49.25
27304;BME280;14791;52.392;13.092;2022-08-21T04:25:56;101158.73;;;23.35;49.32
27304;BME280;14791;52.392;13.092;2022-08-21T04:28:27;101158.39;;;23.30;49.31
27304;BME280;14791;52.392;13.092;2022-08-21T04:30:56;101156.49;;;23.26;49.29
27304;BME280;14791;52.392;13.092;2022-08-21T04:33:26;101153.27;;;23.23;49.35
27304;BME280;14791;52.392;13.092;2022-08-21T04:35:54;101149.66;;;23.22;49.40
27304;BME280;14791;52.392;13.092;2022-08-21T04:38:23;101149.86;;;23.21;49.40
27304;BME280;14791;52.392;13.092;2022-08-21T04:40:54;101150.86;;;23.20;49.45
27304;BME280;14791;52.392;13.092;2022-08-21T04:43:23;101149.49;;;23.20;49.48
27304;BME280;14791;52.392;13.092;2022-08-21T04:45:52;101159.91;;;23.20;49.51
27304;BME280;14791;52.392;13.092;2022-08-21T04:48:23;101158.03;;;23.21;49.54
27304;BME280;14791;52.392;13.092;2022-08-21T04:51:05;101156.99;;;23.22;49.47
27304;BME280;14791;52.392;13.092;2022-08-21T04:53:38;101163.81;;;23.22;49.42
27304;BME280;14791;52.392;13.092;2022-08-21T04:56:18;101165.36;;;23.20;49.44
27304;BME280;14791;52.392;13.092;2022-08-21T04:58:43;101165.36;;;23.20;49.50
27304;BME280;14791;52.392;13.092;2022-08-21T05:01:14;101166.20;;;23.21;49.50
27304;BME280;14791;52.392;13.092;2022-08-21T05:03:45;101167.89;;;23.22;49.45
27304;BME280;14791;52.392;13.092;2022-08-21T05:06:16;101171.31;;;23.24;49.47
27304;BME280;14791;52.392;13.092;2022-08-21T05:08:47;101167.91;;;23.26;49.49
27304;BME280;14791;52.392;13.092;2022-08-21T05:11:17;101170.48;;;23.27;49.45
27304;BME280;14791;52.392;13.092;2022-08-21T05:13:48;101173.19;;;23.31;49.41
27304;BME280;14791;52.392;13.092;2022-08-21T05:16:17;101179.70;;;23.34;49.41
27304;BME280;14791;52.392;13.092;2022-08-21T05:18:46;101173.05;;;23.37;49.35
27304;BME280;14791;52.392;13.092;2022-08-21T05:21:15;101170.98;;;23.39;49.25
27304;BME280;14791;52.392;13.092;2022-08-21T05:23:44;101174.59;;;23.40;49.13
27304;BME280;14791;52.392;13.092;2022-08-21T05:26:13;101183.09;;;23.41;49.13
27304;BME280;14791;52.392;13.092;2022-08-21T05:28:41;101182.94;;;23.42;49.16
27304;BME280;14791;52.392;13.092;2022-08-21T05:31:11;101189.08;;;23.44;49.15
27304;BME280;14791;52.392;13.092;2022-08-21T05:33:40;101191.45;;;23.47;49.10
27304;BME280;14791;52.392;13.092;2022-08-21T05:36:08;101190.78;;;23.49;49.11
27304;BME280;14791;52.392;13.092;2022-08-21T05:38:37;101188.05;;;23.53;49.01
27304;BME280;14791;52.392;13.092;2022-08-21T05:41:06;101186.00;;;23.55;48.94
27304;BME280;14791;52.392;13.092;2022-08-21T05:43:35;101186.69;;;23.57;48.90
27304;BME280;14791;52.392;13.092;2022-08-21T05:46:05;101189.27;;;23.59;48.89
27304;BME280;14791;52.392;13.092;2022-08-21T05:48:35;101196.58;;;23.63;48.86
27304;BME280;14791;52.392;13.092;2022-08-21T05:51:10;101194.54;;;23.65;48.84
27304;BME280;14791;52.392;13.092;2022-08-21T05:53:41;101185.36;;;23.66;48.80
27304;BME280;14791;52.392;13.092;2022-08-21T05:56:11;101195.23;;;23.67;48.78
27304;BME280;14791;52.392;13.092;2022-08-21T05:58:40;101203.42;;;23.71;48.73
27304;BME280;14791;52.392;13.092;2022-08-21T06:01:10;101197.30;;;23.73;48.79
27304;BME280;14791;52.392;13.092;2022-08-21T06:03:40;101192.89;;;23.76;48.69
27304;BME280;14791;52.392;13.092;2022-08-21T06:06:09;101197.83;;;23.81;48.66
27304;BME280;14791;52.392;13.092;2022-08-21T06:08:38;101204.62;;;23.85;48.52
27304;BME280;14791;52.392;13.092;2022-08-21T06:11:08;101198.01;;;23.87;48.49
27304;BME280;14791;52.392;13.092;2022-08-21T06:13:38;101195.09;;;23.89;48.43
27304;BME280;14791;52.392;13.092;2022-08-21T06:16:11;101194.41;;;23.91;48.38
27304;BME280;14791;52.392;13.092;2022-08-21T06:18:39;101196.98;;;23.92;48.46
27304;BME280;14791;52.392;13.092;2022-08-21T06:21:08;101190.48;;;23.93;48.45
27304;BME280;14791;52.392;13.092;2022-08-21T06:23:39;101199.69;;;23.96;48.39
27304;BME280;14791;52.392;13.092;2022-08-21T06:26:08;101196.47;;;23.97;48.45
27304;BME280;14791;52.392;13.092;2022-08-21T06:28:37;101194.76;;;24.00;48.48
27304;BME280;14791;52.392;13.092;2022-08-21T06:31:15;101192.03;;;24.04;48.46
27304;BME280;14791;52.392;13.092;2022-08-21T06:33:44;101195.25;;;24.08;48.37
27304;BME280;14791;52.392;13.092;2022-08-21T06:36:13;101201.07;;;24.09;48.40
27304;BME280;14791;52.392;13.092;2022-08-21T06:38:42;101199.35;;;24.12;48.30
27304;BME280;14791;52.392;13.092;2022-08-21T06:41:12;101200.36;;;24.15;48.27
27304;BME280;14791;52.392;13.092;2022-08-21T06:43:42;101206.83;;;24.18;48.32
27304;BME280;14791;52.392;13.092;2022-08-21T06:46:11;101202.74;;;24.22;48.28
27304;BME280;14791;52.392;13.092;2022-08-21T06:48:40;101202.75;;;24.26;48.09
27304;BME280;14791;52.392;13.092;2022-08-21T06:51:09;101210.42;;;24.31;48.07
27304;BME280;14791;52.392;13.092;2022-08-21T06:53:38;101209.02;;;24.35;47.97
27304;BME280;14791;52.392;13.092;2022-08-21T06:56:07;101206.81;;;24.38;47.93
27304;BME280;14791;52.392;13.092;2022-08-21T06:58:36;101205.45;;;24.43;47.91
27304;BME280;14791;52.392;13.092;2022-08-21T07:01:05;101205.97;;;24.46;47.91
27304;BME280;14791;52.392;13.092;2022-08-21T07:03:39;101205.45;;;24.51;47.77
27304;BME280;14791;52.392;13.092;2022-08-21T07:06:10;101199.63;;;24.54;47.75
27304;BME280;14791;52.392;13.092;2022-08-21T07:08:39;101200.99;;;24.58;47.79
27304;BME280;14791;52.392;13.092;2022-08-21T07:11:15;101197.58;;;24.64;47.92
27304;BME280;14791;52.392;13.092;2022-08-21T07:13:40;101200.11;;;24.70;47.94
27304;BME280;14791;52.392;13.092;2022-08-21T07:16:09;101202.30;;;24.78;47.92
27304;BME280;14791;52.392;13.092;2022-08-21T07:18:38;101201.41;;;24.86;47.79
27304;BME280;14791;52.392;13.092;2022-08-21T07:21:08;101202.56;;;24.96;47.57
27304;BME280;14791;52.392;13.092;2022-08-21T07:23:40;101202.87;;;25.05;47.52
27304;BME280;14791;52.392;13.092;2022-08-21T07:26:10;101199.07;;;25.14;47.29
27304;BME280;14791;52.392;13.092;2022-08-21T07:28:39;101194.62;;;25.21;47.06
27304;BME280;14791;52.392;13.092;2022-08-21T07:31:09;101195.09;;;25.25;46.81
27304;BME280;14791;52.392;13.092;2022-08-21T07:33:41;101194.56;;;25.30;46.66
27304;BME280;14791;52.392;13.092;2022-08-21T07:36:10;101193.86;;;25.32;46.52
27304;BME280;14791;52.392;13.092;2022-08-21T07:38:40;101188.72;;;25.33;46.52
27304;BME280;14791;52.392;13.092;2022-08-21T07:41:18;101192.80;;;25.37;46.53
27304;BME280;14791;52.392;13.092;2022-08-21T07:43:47;101192.27;;;25.41;46.34
27304;BME280;14791;52.392;13.092;2022-08-21T07:46:16;101193.78;;;25.44;46.38
27304;BME280;14791;52.392;13.092;2022-08-21T07:48:46;101195.13;;;25.48;46.08
27304;BME280;14791;52.392;13.092;2022-08-21T07:51:16;101196.80;;;25.53;46.10
27304;BME280;14791;52.392;13.092;2022-08-21T07:53:50;101200.83;;;25.61;45.77
27304;BME280;14791;52.392;13.092;2022-08-21T07:56:21;101191.22;;;25.70;45.67
27304;BME280;14791;52.392;13.092;2022-08-21T07:58:50;101192.19;;;25.77;45.54
27304;BME280;14791;52.392;13.092;2022-08-21T08:01:19;101188.52;;;25.84;45.45
27304;BME280;14791;52.392;13.092;2022-08-21T08:03:48;101191.03;;;25.94;45.18
27304;BME280;14791;52.392;13.092;2022-08-21T08:06:17;101185.16;;;26.01;44.99
27304;BME280;14791;52.392;13.092;2022-08-21T08:08:47;101187.16;;;26.07;44.76
27304;BME280;14791;52.392;13.092;2022-08-21T08:11:16;101176.16;;;26.12;44.79
27304;BME280;14791;52.392;13.092;2022-08-21T08:13:52;101177.17;;;26.15;44.67
27304;BME280;14791;52.392;13.092;2022-08-21T08:16:17;101180.23;;;26.16;44.43
27304;BME280;14791;52.392;13.092;2022-08-21T08:18:46;101172.69;;;26.18;44.47
27304;BME280;14791;52.392;13.092;2022-08-21T08:21:15;101169.25;;;26.20;44.37
27304;BME280;14791;52.392;13.092;2022-08-21T08:23:45;101167.81;;;26.24;44.30
27304;BME280;14791;52.392;13.092;2022-08-21T08:26:14;101175.99;;;26.28;44.06
27304;BME280;14791;52.392;13.092;2022-08-21T08:28:45;101177.68;;;26.29;43.99
27304;BME280;14791;52.392;13.092;2022-08-21T08:31:15;101176.66;;;26.30;43.82
27304;BME280;14791;52.392;13.092;2022-08-21T08:33:44;101176.98;;;26.31;43.56
27304;BME280;14791;52.392;13.092;2022-08-21T08:36:17;101183.79;;;26.35;43.58
27304;BME280;14791;52.392;13.092;2022-08-21T08:38:47;101183.41;;;26.38;43.41
27304;BME280;14791;52.392;13.092;2022-08-21T08:41:20;101192.78;;;26.44;43.47
27304;BME280;14791;52.392;13.092;2022-08-21T08:43:53;101193.91;;;26.49;43.60
27304;BME280;14791;52.392;13.092;2022-08-21T08:46:36;101195.73;;;26.57;43.43
27304;BME280;14791;52.392;13.092;2022-08-21T08:49:15;101200.22;;;26.69;42.99
27304;BME280;14791;52.392;13.092;2022-08-21T08:54:25;101196.44;;;26.85;42.39
27304;BME280;14791;52.392;13.092;2022-08-21T08:56:52;101196.45;;;26.95;42.16
27304;BME280;14791;52.392;13.092;2022-08-21T08:59:32;101200.61;;;27.06;42.03
27304;BME280;14791;52.392;13.092;2022-08-21T09:01:55;101192.75;;;27.18;41.87
27304;BME280;14791;52.392;13.092;2022-08-21T09:04:26;101192.47;;;27.28;41.59
27304;BME280;14791;52.392;13.092;2022-08-21T09:07:01;101185.61;;;27.39;41.12
27304;BME280;14791;52.392;13.092;2022-08-21T09:23:16;101177.84;;;27.74;40.39
27304;BME280;14791;52.392;13.092;2022-08-21T09:26:05;101182.21;;;27.79;40.35
27304;BME280;14791;52.392;13.092;2022-08-21T09:28:34;101182.19;;;27.84;40.15
27304;BME280;14791;52.392;13.092;2022-08-21T09:31:06;101186.55;;;27.89;40.46
27304;BME280;14791;52.392;13.092;2022-08-21T09:33:35;101183.15;;;27.97;39.96
27304;BME280;14791;52.392;13.092;2022-08-21T09:36:04;101187.45;;;28.07;39.88
27304;BME280;14791;52.392;13.092;2022-08-21T09:38:36;101188.14;;;28.15;39.56
27304;BME280;14791;52.392;13.092;2022-08-21T09:41:08;101181.33;;;28.22;39.31
27304;BME280;14791;52.392;13.092;2022-08-21T09:43:38;101183.28;;;28.28;39.01
27304;BME280;14791;52.392;13.092;2022-08-21T09:46:19;101181.63;;;28.34;38.86
27304;BME280;14791;52.392;13.092;2022-08-21T09:48:50;101182.09;;;28.37;38.55
27304;BME280;14791;52.392;13.092;2022-08-21T09:51:26;101178.08;;;28.40;38.49
27304;BME280;14791;52.392;13.092;2022-08-21T09:56:38;101179.50;;;28.47;38.28
27304;BME280;14791;52.392;13.092;2022-08-21T09:59:28;101180.27;;;28.51;38.35
27304;BME280;14791;52.392;13.092;2022-08-21T10:02:01;101180.86;;;28.57;38.42
27304;BME280;14791;52.392;13.092;2022-08-21T10:04:33;101187.36;;;28.67;38.22
27304;BME280;14791;52.392;13.092;2022-08-21T10:07:15;101189.73;;;28.77;38.15
27304;BME280;14791;52.392;13.092;2022-08-21T10:09:41;101189.16;;;28.88;38.47
27304;BME280;14791;52.392;13.092;2022-08-21T10:12:20;101184.84;;;28.96;38.28
27304;BME280;14791;52.392;13.092;2022-08-21T10:14:58;101185.33;;;29.07;37.75
27304;BME280;14791;52.392;13.092;2022-08-21T10:17:45;101181.05;;;29.15;37.56
27304;BME280;14791;52.392;13.092;2022-08-21T10:20:37;101176.41;;;29.22;37.51
27304;BME280;14791;52.392;13.092;2022-08-21T10:23:07;101175.45;;;29.25;37.31
27304;BME280;14791;52.392;13.092;2022-08-21T10:25:41;101178.11;;;29.30;37.46
27304;BME280;14791;52.392;13.092;2022-08-21T10:28:24;101175.47;;;29.32;37.11
27304;BME280;14791;52.392;13.092;2022-08-21T10:31:21;101171.56;;;29.37;37.20
27304;BME280;14791;52.392;13.092;2022-08-21T10:33:38;101172.43;;;29.44;37.07
27304;BME280;14791;52.392;13.092;2022-08-21T10:36:21;101173.18;;;29.49;36.76
27304;BME280;14791;52.392;13.092;2022-08-21T10:39:19;101169.80;;;29.54;36.55
27304;BME280;14791;52.392;13.092;2022-08-21T10:47:28;101165.49;;;29.62;36.43
27304;BME280;14791;52.392;13.092;2022-08-21T10:50:04;101171.88;;;29.69;35.88
27304;BME280;14791;52.392;13.092;2022-08-21T10:55:39;101173.14;;;29.73;35.38
27304;BME280;14791;52.392;13.092;2022-08-21T10:58:25;101176.42;;;29.73;35.33
27304;BME280;14791;52.392;13.092;2022-08-21T11:00:51;101181.83;;;29.70;35.47
27304;BME280;14791;52.392;13.092;2022-08-21T11:03:39;101178.00;;;29.71;35.00
27304;BME280;14791;52.392;13.092;2022-08-21T11:06:16;101167.97;;;29.74;34.65
27304;BME280;14791;52.392;13.092;2022-08-21T11:08:51;101177.91;;;29.75;34.37
27304;BME280;14791;52.392;13.092;2022-08-21T11:11:31;101171.02;;;29.75;34.36
27304;BME280;14791;52.392;13.092;2022-08-21T11:14:03;101171.46;;;29.79;34.40
27304;BME280;14791;52.392;13.092;2022-08-21T11:16:42;101168.28;;;29.82;34.36
27304;BME280;14791;52.392;13.092;2022-08-21T11:19:29;101171.44;;;29.85;34.90
27304;BME280;14791;52.392;13.092;2022-08-21T11:22:28;101172.31;;;29.86;34.12
27304;BME280;14791;52.392;13.092;2022-08-21T11:25:08;101169.42;;;29.83;34.04
27304;BME280;14791;52.392;13.092;2022-08-21T11:27:49;101166.47;;;29.78;34.11
27304;BME280;14791;52.392;13.092;2022-08-21T11:30:17;101162.97;;;29.80;33.88
27304;BME280;14791;52.392;13.092;2022-08-21T11:33:14;101159.48;;;29.82;33.88
27304;BME280;14791;52.392;13.092;2022-08-21T11:36:20;101165.00;;;29.89;33.61
27304;BME280;14791;52.392;13.092;2022-08-21T11:38:44;101167.02;;;29.91;33.57
27304;BME280;14791;52.392;13.092;2022-08-21T11:41:35;101168.28;;;29.88;33.55
27304;BME280;14791;52.392;13.092;2022-08-21T11:47:14;101158.66;;;29.88;33.53
27304;BME280;14791;52.392;13.092;2022-08-21T11:50:16;101153.65;;;29.88;33.62
27304;BME280;14791;52.392;13.092;2022-08-21T11:52:59;101154.39;;;29.93;33.49
27304;BME280;14791;52.392;13.092;2022-08-21T11:55:40;101158.02;;;29.93;33.71
27304;BME280;14791;52.392;13.092;2022-08-21T11:58:11;101164.57;;;29.99;33.67
27304;BME280;14791;52.392;13.092;2022-08-21T12:00:42;101155.14;;;30.04;33.55
27304;BME280;14791;52.392;13.092;2022-08-21T12:03:15;101154.30;;;30.10;33.46
27304;BME280;14791;52.392;13.092;2022-08-21T12:05:52;101146.23;;;30.15;33.25
27304;BME280;14791;52.392;13.092;2022-08-21T12:08:28;101148.98;;;30.22;33.37
27304;BME280;14791;52.392;13.092;2022-08-21T12:11:06;101149.95;;;30.31;33.30
27304;BME280;14791;52.392;13.092;2022-08-21T12:13:38;101143.66;;;30.40;33.44
27304;BME280;14791;52.392;13.092;2022-08-21T12:16:15;101144.36;;;30.58;33.34
27304;BME280;14791;52.392;13.092;2022-08-21T12:18:40;101141.53;;;30.85;33.04
27304;BME280;14791;52.392;13.092;2022-08-21T12:21:27;101144.66;;;31.18;32.61
27304;BME280;14791;52.392;13.092;2022-08-21T12:26:50;101137.11;;;31.79;31.91
27304;BME280;14791;52.392;13.092;2022-08-21T12:29:27;101140.36;;;32.10;31.61
27304;BME280;14791;52.392;13.092;2022-08-21T12:32:00;101137.17;;;32.41;31.40
27304;BME280;14791;52.392;13.092;2022-08-21T12:34:35;101142.20;;;32.60;30.79
27304;BME280;14791;52.392;13.092;2022-08-21T12:37:15;101128.80;;;32.75;30.40
27304;BME280;14791;52.392;13.092;2022-08-21T12:39:43;101138.94;;;33.00;30.30
27304;BME280;14791;52.392;13.092;2022-08-21T12:42:22;101143.37;;;33.19;30.58
27304;BME280;14791;52.392;13.092;2022-08-21T12:45:00;101141.32;;;33.57;30.43
27304;BME280;14791;52.392;13.092;2022-08-21T12:47:34;101141.61;;;34.02;30.24
27304;BME280;14791;52.392;13.092;2022-08-21T12:53:36;101140.64;;;34.56;29.27
27304;BME280;14791;52.392;13.092;2022-08-21T12:56:08;101142.06;;;34.96;29.19
27304;BME280;14791;52.392;13.092;2022-08-21T12:58:39;101136.92;;;35.48;28.94
27304;BME280;14791;52.392;13.092;2022-08-21T13:01:23;101131.16;;;35.83;28.13
27304;BME280;14791;52.392;13.092;2022-08-21T13:03:54;101128.58;;;35.96;27.88
27304;BME280;14791;52.392;13.092;2022-08-21T13:06:26;101140.35;;;36.03;27.57
27304;BME280;14791;52.392;13.092;2022-08-21T13:09:03;101146.40;;;36.14;27.15
27304;BME280;14791;52.392;13.092;2022-08-21T13:11:32;101136.05;;;36.29;26.88
27304;BME280;14791;52.392;13.092;2022-08-21T13:14:02;101141.55;;;36.46;27.07
27304;BME280;14791;52.392;13.092;2022-08-21T13:16:32;101146.03;;;36.67;26.82
27304;BME280;14791;52.392;13.092;2022-08-21T13:19:04;101138.86;;;36.95;26.49
27304;BME280;14791;52.392;13.092;2022-08-21T13:21:39;101137.48;;;37.20;26.08
27304;BME280;14791;52.392;13.092;2022-08-21T13:24:32;101138.23;;;37.42;25.79
27304;BME280;14791;52.392;13.092;2022-08-21T13:27:01;101140.09;;;37.59;25.61
27304;BME280;14791;52.392;13.092;2022-08-21T13:29:32;101140.67;;;37.61;25.49
27304;BME280;14791;52.392;13.092;2022-08-21T13:32:06;101142.30;;;37.57;25.11
27304;BME280;14791;52.392;13.092;2022-08-21T13:34:37;101141.80;;;37.35;24.98
27304;BME280;14791;52.392;13.092;2022-08-21T13:37:08;101144.26;;;37.04;25.03
27304;BME280;14791;52.392;13.092;2022-08-21T13:39:38;101145.51;;;36.70;25.01
27304;BME280;14791;52.392;13.092;2022-08-21T13:42:10;101144.94;;;36.29;25.14